createdAt,value
2019-03-29T00:01:39.855Z,74.10
2019-03-29T00:04:09.315Z,74.10
2019-03-29T00:06:39.771Z,74.50
2019-03-29T00:09:09.909Z,74.80
2019-03-29T00:11:39.340Z,74.80
2019-03-29T00:14:08.779Z,74.80
2019-03-29T00:16:38.247Z,75.00
2019-03-29T00:19:08.022Z,75.10
2019-03-29T00:21:37.527Z,75.30
2019-03-29T00:24:07.419Z,75.40
2019-03-29T00:26:37.031Z,75.70
2019-03-29T00:29:06.536Z,76.00
2019-03-29T00:31:36.416Z,76.60
2019-03-29T00:34:05.874Z,76.70
2019-03-29T00:36:35.675Z,77.00
2019-03-29T00:39:06.580Z,77.50
2019-03-29T00:41:36.283Z,78.50
2019-03-29T00:44:05.728Z,78.70
2019-03-29T00:46:35.264Z,79.40
2019-03-29T00:49:04.784Z,79.10
2019-03-29T00:51:34.274Z,79.80
2019-03-29T00:54:03.949Z,79.60
2019-03-29T00:56:33.388Z,79.60
2019-03-29T00:59:02.902Z,79.60
2019-03-29T01:01:32.436Z,79.40
2019-03-29T01:04:02.971Z,79.00
2019-03-29T01:06:32.652Z,79.20
2019-03-29T01:09:03.287Z,79.50
2019-03-29T01:11:32.802Z,80.00
2019-03-29T01:14:02.319Z,79.90
2019-03-29T01:16:32.023Z,80.20
2019-03-29T01:19:01.511Z,80.30
2019-03-29T01:21:31.017Z,79.90
2019-03-29T01:24:00.490Z,79.90
2019-03-29T01:26:29.936Z,80.30
2019-03-29T01:28:59.671Z,80.70
2019-03-29T01:31:29.219Z,80.90
2019-03-29T01:33:58.722Z,80.50
2019-03-29T01:36:28.303Z,80.30
2019-03-29T01:38:58.518Z,80.40
2019-03-29T01:41:28.012Z,80.80
2019-03-29T01:43:57.969Z,81.00
2019-03-29T01:46:27.488Z,80.90
2019-03-29T01:48:56.932Z,81.30
2019-03-29T01:51:27.231Z,81.40
2019-03-29T01:53:57.792Z,81.60
2019-03-29T01:56:27.227Z,82.10
2019-03-29T01:58:56.728Z,83.60
2019-03-29T02:01:26.257Z,83.40
2019-03-29T02:03:56.013Z,84.10
2019-03-29T02:06:25.442Z,84.00
2019-03-29T02:08:54.923Z,84.70
2019-03-29T02:11:25.706Z,85.60
2019-03-29T02:13:55.144Z,85.70
2019-03-29T02:16:24.675Z,87.20
2019-03-29T02:18:54.120Z,87.40
2019-03-29T02:21:25.035Z,87.80
2019-03-29T02:23:54.564Z,88.30
2019-03-29T02:26:24.011Z,89.10
2019-03-29T02:28:53.436Z,90.70
2019-03-29T02:31:25.894Z,91.20
2019-03-29T02:33:54.536Z,91.10
2019-03-29T02:36:24.066Z,92.90
2019-03-29T02:38:55.475Z,92.90
2019-03-29T02:41:24.855Z,93.90
2019-03-29T02:43:54.369Z,94.60
2019-03-29T02:46:25.634Z,93.70
2019-03-29T02:48:55.168Z,94.30
2019-03-29T02:51:24.691Z,95.00
2019-03-29T02:53:54.301Z,94.80
2019-03-29T02:56:24.114Z,94.60
2019-03-29T02:58:53.608Z,94.40
2019-03-29T03:01:23.076Z,94.40
2019-03-29T03:03:52.517Z,94.30
2019-03-29T03:06:22.026Z,94.10
2019-03-29T03:08:51.628Z,94.60
2019-03-29T03:11:21.074Z,93.70
2019-03-29T03:13:51.866Z,93.40
2019-03-29T03:16:21.471Z,93.30
2019-03-29T03:18:50.976Z,94.10
2019-03-29T03:21:20.417Z,94.10
2019-03-29T03:23:49.972Z,94.20
2019-03-29T03:26:19.472Z,94.30
2019-03-29T03:28:49.301Z,93.70
2019-03-29T03:31:19.004Z,94.30
2019-03-29T03:33:48.500Z,93.80
2019-03-29T03:36:18.069Z,94.30
2019-03-29T03:38:47.721Z,95.30
2019-03-29T03:41:17.551Z,95.40
2019-03-29T03:43:47.089Z,95.40
2019-03-29T03:46:16.555Z,96.30
2019-03-29T03:48:46.060Z,96.60
2019-03-29T03:51:15.818Z,96.50
2019-03-29T03:53:45.900Z,97.30
2019-03-29T03:56:17.556Z,98.10
2019-03-29T03:58:47.596Z,99.70
2019-03-29T04:01:17.128Z,98.60
2019-03-29T04:03:46.901Z,98.30
2019-03-29T04:06:16.495Z,98.10
2019-03-29T04:08:46.177Z,97.80
2019-03-29T04:11:15.618Z,96.50
2019-03-29T04:13:45.413Z,96.60
2019-03-29T04:16:16.246Z,95.50
2019-03-29T04:18:46.053Z,96.00
2019-03-29T04:21:15.551Z,95.40
2019-03-29T04:23:45.228Z,95.90
2019-03-29T04:26:14.728Z,95.40
2019-03-29T04:28:44.583Z,95.20
2019-03-29T04:31:14.253Z,94.80
2019-03-29T04:33:43.796Z,94.70
2019-03-29T04:36:13.607Z,94.20
2019-03-29T04:38:43.145Z,94.40
2019-03-29T04:41:12.722Z,94.40
2019-03-29T04:43:42.298Z,95.10
2019-03-29T04:46:11.904Z,95.60
2019-03-29T04:48:41.367Z,95.70
2019-03-29T04:51:11.244Z,95.60
2019-03-29T04:53:41.048Z,95.80
2019-03-29T04:56:10.562Z,95.60
2019-03-29T04:58:40.417Z,96.20
2019-03-29T05:01:09.923Z,95.70
2019-03-29T05:03:39.373Z,96.10
2019-03-29T05:06:08.815Z,96.40
2019-03-29T05:08:38.292Z,96.30
2019-03-29T05:11:07.821Z,96.40
2019-03-29T05:13:37.708Z,96.90
2019-03-29T05:16:07.235Z,97.40
2019-03-29T05:18:37.980Z,97.40
2019-03-29T05:21:07.419Z,97.80
2019-03-29T05:23:36.879Z,97.10
2019-03-29T05:26:06.315Z,97.10
2019-03-29T05:28:36.078Z,96.50
2019-03-29T05:31:05.622Z,96.50
2019-03-29T05:33:35.127Z,96.00
2019-03-29T05:36:04.993Z,96.00
2019-03-29T05:38:35.112Z,96.60
2019-03-29T05:41:04.619Z,96.00
2019-03-29T05:43:34.195Z,96.30
2019-03-29T05:46:03.734Z,96.00
2019-03-29T05:48:33.244Z,96.10
2019-03-29T05:51:02.679Z,96.10
2019-03-29T05:53:32.144Z,95.30
2019-03-29T05:56:01.747Z,96.10
2019-03-29T05:58:31.305Z,96.00
2019-03-29T06:01:00.915Z,95.60
2019-03-29T06:03:30.773Z,94.90
2019-03-29T06:06:00.581Z,94.80
2019-03-29T06:08:30.044Z,94.70
2019-03-29T06:10:59.482Z,94.30
2019-03-29T06:13:29.034Z,94.50
2019-03-29T06:16:18.031Z,93.90
2019-03-29T06:18:47.639Z,93.60
2019-03-29T06:21:23.142Z,93.60
2019-03-29T06:23:53.076Z,93.40
2019-03-29T06:26:41.913Z,93.10
2019-03-29T06:29:11.343Z,92.80
2019-03-29T06:31:40.872Z,92.20
2019-03-29T06:34:10.532Z,92.70
2019-03-29T06:36:41.618Z,93.10
2019-03-29T06:39:11.758Z,92.30
2019-03-29T06:41:41.224Z,92.40
2019-03-29T06:44:10.740Z,92.10
2019-03-29T06:46:40.355Z,91.70
2019-03-29T06:49:09.818Z,91.30
2019-03-29T06:51:39.351Z,91.00
2019-03-29T06:54:08.836Z,90.60
2019-03-29T06:56:38.379Z,90.20
2019-03-29T06:59:07.813Z,89.80
2019-03-29T07:01:37.239Z,89.20
2019-03-29T07:04:06.776Z,88.90
2019-03-29T07:06:36.280Z,88.00
2019-03-29T07:09:07.131Z,87.00
2019-03-29T07:11:39.665Z,87.20
2019-03-29T07:14:08.236Z,86.40
2019-03-29T07:16:38.133Z,85.20
2019-03-29T07:19:07.760Z,85.70
2019-03-29T07:21:37.267Z,85.30
2019-03-29T07:24:07.856Z,83.50
2019-03-29T07:26:37.407Z,83.80
2019-03-29T07:29:06.908Z,82.60
2019-03-29T07:31:36.352Z,82.10
2019-03-29T07:34:06.188Z,81.30
2019-03-29T07:36:35.620Z,81.10
2019-03-29T07:39:06.482Z,80.70
2019-03-29T07:41:36.087Z,79.30
2019-03-29T07:44:05.995Z,78.00
2019-03-29T07:46:35.433Z,77.10
2019-03-29T07:49:04.968Z,77.80
2019-03-29T07:51:34.412Z,77.10
2019-03-29T07:54:04.003Z,77.60
2019-03-29T07:56:34.086Z,76.30
2019-03-29T07:59:04.053Z,75.00
2019-03-29T08:01:33.580Z,75.00
2019-03-29T08:04:03.111Z,73.80
2019-03-29T08:06:32.535Z,72.60
2019-03-29T08:09:02.054Z,73.50
2019-03-29T08:11:44.949Z,74.30
2019-03-29T08:14:03.181Z,75.10
2019-03-29T08:16:33.197Z,74.20
2019-03-29T08:19:02.733Z,73.80
2019-03-29T08:21:32.243Z,74.20
2019-03-29T08:24:02.017Z,72.80
2019-03-29T08:26:32.816Z,70.70
2019-03-29T08:29:02.254Z,69.30
2019-03-29T08:31:31.769Z,67.60
2019-03-29T08:34:01.675Z,66.00
2019-03-29T08:36:33.020Z,63.80
2019-03-29T08:39:02.471Z,63.10
2019-03-29T08:41:31.966Z,63.60
2019-03-29T08:44:01.536Z,62.20
2019-03-29T08:46:31.452Z,60.10
2019-03-29T08:49:01.216Z,58.50
2019-03-29T08:51:30.647Z,59.00
2019-03-29T08:54:00.553Z,58.60
2019-03-29T08:56:30.083Z,58.40
2019-03-29T08:58:59.588Z,58.50
2019-03-29T09:01:29.020Z,57.90
2019-03-29T09:04:05.180Z,57.00
2019-03-29T09:06:30.457Z,56.70
2019-03-29T09:09:03.438Z,55.60
2019-03-29T09:11:32.976Z,55.30
2019-03-29T09:14:02.555Z,53.80
2019-03-29T09:16:32.198Z,53.70
2019-03-29T09:19:01.663Z,53.90
2019-03-29T09:21:31.203Z,54.00
2019-03-29T09:24:00.660Z,53.20
2019-03-29T09:26:30.196Z,52.60
2019-03-29T09:29:01.008Z,53.00
2019-03-29T09:31:30.454Z,52.90
2019-03-29T09:34:00.051Z,52.10
2019-03-29T09:36:29.561Z,51.70
2019-03-29T09:38:59.000Z,51.60
2019-03-29T09:41:28.473Z,51.80
2019-03-29T09:43:57.975Z,51.50
2019-03-29T09:46:27.434Z,51.40
2019-03-29T09:48:57.004Z,50.80
2019-03-29T09:51:26.505Z,50.60
2019-03-29T09:53:57.904Z,50.70
2019-03-29T09:56:37.911Z,50.20
2019-03-29T09:58:58.371Z,49.70
2019-03-29T10:01:27.951Z,50.00
2019-03-29T10:03:57.588Z,49.80
2019-03-29T10:06:27.024Z,50.10
2019-03-29T10:08:56.541Z,50.10
2019-03-29T10:11:26.381Z,49.30
2019-03-29T10:13:56.127Z,49.10
2019-03-29T10:16:45.785Z,49.30
2019-03-29T10:19:15.333Z,49.60
2019-03-29T10:21:45.180Z,49.10
2019-03-29T10:24:14.716Z,48.90
2019-03-29T10:26:44.164Z,48.30
2019-03-29T10:29:13.671Z,47.90
2019-03-29T10:31:43.509Z,45.00
2019-03-29T10:34:13.088Z,45.20
2019-03-29T10:36:42.520Z,43.80
2019-03-29T10:39:12.272Z,44.10
2019-03-29T10:41:41.787Z,44.40
2019-03-29T10:44:30.667Z,43.40
2019-03-29T10:47:00.175Z,43.90
2019-03-29T10:49:29.687Z,44.90
2019-03-29T10:51:59.160Z,42.30
2019-03-29T10:54:28.740Z,36.80
2019-03-29T10:56:58.624Z,35.80
2019-03-29T10:59:28.342Z,34.50
2019-03-29T11:01:57.867Z,31.90
2019-03-29T11:04:27.377Z,32.50
2019-03-29T11:06:56.919Z,31.80
2019-03-29T11:09:26.449Z,31.00
2019-03-29T11:11:55.883Z,30.20
2019-03-29T11:14:25.428Z,31.80
2019-03-29T11:17:14.316Z,29.20
2019-03-29T11:19:44.130Z,28.80
2019-03-29T11:22:13.782Z,29.80
2019-03-29T11:24:43.289Z,28.50
2019-03-29T11:27:12.954Z,28.60
2019-03-29T11:29:42.762Z,28.50
2019-03-29T11:32:12.223Z,26.90
2019-03-29T11:34:41.756Z,27.90
2019-03-29T11:37:11.207Z,28.90
2019-03-29T11:39:40.720Z,29.50
2019-03-29T11:42:10.462Z,27.70
2019-03-29T11:44:40.027Z,27.70
2019-03-29T11:47:10.013Z,26.80
2019-03-29T11:49:39.620Z,27.20
2019-03-29T11:52:09.057Z,29.70
2019-03-29T11:54:38.719Z,32.70
2019-03-29T11:57:08.644Z,32.40
2019-03-29T11:59:40.180Z,28.60
2019-03-29T12:02:09.620Z,29.20
2019-03-29T12:04:39.717Z,28.30
2019-03-29T12:07:09.225Z,27.20
2019-03-29T12:09:38.755Z,26.40
2019-03-29T12:12:08.364Z,25.50
2019-03-29T12:14:37.800Z,25.90
2019-03-29T12:17:07.235Z,25.50
2019-03-29T12:19:36.864Z,25.70
2019-03-29T12:22:06.837Z,26.20
2019-03-29T12:24:36.348Z,26.00
2019-03-29T12:27:06.159Z,25.20
2019-03-29T12:29:35.752Z,24.60
2019-03-29T12:32:05.528Z,24.50
2019-03-29T12:34:35.107Z,24.70
2019-03-29T12:37:04.624Z,25.00
2019-03-29T12:39:34.239Z,25.50
2019-03-29T12:42:03.691Z,24.80
2019-03-29T12:44:33.200Z,24.30
2019-03-29T12:47:02.640Z,24.10
2019-03-29T12:49:32.475Z,23.30
2019-03-29T12:52:01.943Z,24.20
2019-03-29T12:54:31.458Z,24.00
2019-03-29T12:57:01.375Z,24.00
2019-03-29T12:59:32.854Z,23.30
2019-03-29T13:02:02.165Z,23.80
2019-03-29T13:04:32.022Z,22.80
2019-03-29T13:07:01.545Z,23.00
2019-03-29T13:09:31.052Z,23.30
2019-03-29T13:12:01.252Z,23.60
2019-03-29T13:14:30.775Z,23.10
2019-03-29T13:17:02.794Z,22.30
2019-03-29T13:19:31.564Z,23.90
2019-03-29T13:22:01.067Z,23.40
2019-03-29T13:24:30.928Z,22.90
2019-03-29T13:27:00.464Z,23.10
2019-03-29T13:29:29.909Z,22.50
2019-03-29T13:31:59.852Z,24.00
2019-03-29T13:34:29.761Z,23.60
2019-03-29T13:36:59.217Z,23.10
2019-03-29T13:39:30.374Z,23.00
2019-03-29T13:42:00.278Z,22.60
2019-03-29T13:44:29.793Z,22.00
2019-03-29T13:46:59.636Z,21.80
2019-03-29T13:49:29.448Z,22.10
2019-03-29T13:51:58.892Z,22.00
2019-03-29T13:54:28.788Z,21.80
2019-03-29T13:56:58.688Z,21.50
2019-03-29T13:59:28.263Z,22.40
2019-03-29T14:01:57.996Z,22.90
2019-03-29T14:04:27.567Z,22.90
2019-03-29T14:06:57.084Z,22.90
2019-03-29T14:09:29.222Z,22.80
2019-03-29T14:11:57.765Z,22.30
2019-03-29T14:14:37.683Z,22.70
2019-03-29T14:16:58.816Z,22.10
2019-03-29T14:19:28.957Z,22.10
2019-03-29T14:21:58.472Z,22.00
2019-03-29T14:24:27.976Z,22.40
2019-03-29T14:26:57.614Z,22.30
2019-03-29T14:29:27.390Z,21.90
2019-03-29T14:31:56.988Z,21.50
2019-03-29T14:34:26.548Z,21.50
2019-03-29T14:36:59.183Z,22.60
2019-03-29T14:39:27.655Z,22.50
2019-03-29T14:41:57.332Z,21.90
2019-03-29T14:44:27.144Z,21.60
2019-03-29T14:46:56.961Z,21.70
2019-03-29T14:49:26.772Z,21.70
2019-03-29T14:51:56.217Z,21.80
2019-03-29T14:54:26.089Z,21.70
2019-03-29T14:56:55.725Z,21.70
2019-03-29T14:59:25.618Z,22.40
2019-03-29T15:01:55.634Z,22.30
2019-03-29T15:04:25.237Z,22.50
2019-03-29T15:06:54.896Z,22.20
2019-03-29T15:09:25.356Z,23.50
2019-03-29T15:11:55.212Z,21.90
2019-03-29T15:14:24.996Z,22.90
2019-03-29T15:16:54.511Z,22.00
2019-03-29T15:19:24.072Z,22.10
2019-03-29T15:21:53.586Z,23.00
2019-03-29T15:24:23.166Z,23.30
2019-03-29T15:26:52.763Z,23.30
2019-03-29T15:29:22.204Z,23.50
2019-03-29T15:31:51.647Z,22.90
2019-03-29T15:34:21.191Z,22.80
2019-03-29T15:36:50.636Z,22.90
2019-03-29T15:39:20.587Z,23.00
2019-03-29T15:41:50.131Z,23.60
2019-03-29T15:44:19.567Z,24.80
2019-03-29T15:46:51.470Z,24.10
2019-03-29T15:49:20.306Z,23.80
2019-03-29T15:51:49.748Z,23.90
2019-03-29T15:54:19.625Z,24.50
2019-03-29T15:56:49.106Z,24.00
2019-03-29T15:59:18.937Z,24.20
2019-03-29T16:01:48.376Z,24.40
2019-03-29T16:04:17.843Z,24.60
2019-03-29T16:06:47.758Z,24.80
2019-03-29T16:09:17.472Z,25.30
2019-03-29T16:11:47.333Z,25.10
2019-03-29T16:14:16.915Z,25.10
2019-03-29T16:16:46.500Z,25.10
2019-03-29T16:19:16.132Z,25.60
2019-03-29T16:21:45.576Z,25.50
2019-03-29T16:24:15.008Z,25.70
2019-03-29T16:26:44.540Z,25.60
2019-03-29T16:29:14.325Z,25.60
2019-03-29T16:31:43.769Z,25.10
2019-03-29T16:34:13.387Z,25.90
2019-03-29T16:36:43.136Z,26.10
2019-03-29T16:39:13.259Z,27.20
2019-03-29T16:41:42.940Z,27.40
2019-03-29T16:44:12.784Z,27.70
2019-03-29T16:46:42.592Z,27.10
2019-03-29T16:49:12.069Z,27.00
2019-03-29T16:51:41.518Z,27.50
2019-03-29T16:54:11.025Z,27.90
2019-03-29T16:56:40.623Z,28.20
2019-03-29T16:59:10.138Z,28.10
2019-03-29T17:01:39.653Z,27.90
2019-03-29T17:04:09.187Z,28.90
2019-03-29T17:06:38.936Z,30.30
2019-03-29T17:09:08.905Z,30.70
2019-03-29T17:11:38.367Z,31.40
2019-03-29T17:14:07.840Z,32.20
2019-03-29T17:16:37.278Z,32.80
2019-03-29T17:19:06.875Z,33.10
2019-03-29T17:21:36.327Z,33.60
2019-03-29T17:24:05.908Z,34.00
2019-03-29T17:26:35.455Z,34.20
2019-03-29T17:29:04.964Z,34.40
2019-03-29T17:31:34.804Z,34.90
2019-03-29T17:34:04.340Z,34.90
2019-03-29T17:36:33.786Z,35.10
2019-03-29T17:39:03.368Z,35.30
2019-03-29T17:41:32.898Z,35.60
2019-03-29T17:44:02.399Z,35.80
2019-03-29T17:46:31.924Z,36.00
2019-03-29T17:49:01.511Z,36.50
2019-03-29T17:51:31.059Z,36.50
2019-03-29T17:54:00.855Z,36.60
2019-03-29T17:56:30.396Z,36.90
2019-03-29T17:58:59.907Z,36.90
2019-03-29T18:01:29.434Z,37.00
2019-03-29T18:03:59.245Z,37.30
2019-03-29T18:06:28.682Z,37.80
2019-03-29T18:08:58.184Z,38.20
2019-03-29T18:11:27.719Z,39.10
2019-03-29T18:13:57.609Z,38.70
2019-03-29T18:16:30.984Z,39.10
2019-03-29T18:18:58.420Z,39.40
2019-03-29T18:21:28.167Z,39.60
2019-03-29T18:23:57.670Z,39.80
2019-03-29T18:26:27.792Z,39.70
2019-03-29T18:28:57.293Z,39.90
2019-03-29T18:31:26.801Z,39.70
2019-03-29T18:33:56.271Z,40.10
2019-03-29T18:36:25.862Z,40.00
2019-03-29T18:38:55.857Z,40.10
2019-03-29T18:41:25.756Z,40.40
2019-03-29T18:43:55.267Z,40.40
2019-03-29T18:46:25.287Z,40.20
2019-03-29T18:48:55.011Z,40.50
2019-03-29T18:51:24.448Z,41.00
2019-03-29T18:53:53.887Z,41.30
2019-03-29T18:56:23.430Z,42.60
2019-03-29T18:58:52.935Z,42.70
2019-03-29T19:01:22.693Z,42.70
2019-03-29T19:03:52.231Z,42.80
2019-03-29T19:06:22.108Z,42.90
2019-03-29T19:08:51.621Z,43.40
2019-03-29T19:11:21.239Z,43.80
2019-03-29T19:13:50.756Z,45.00
2019-03-29T19:16:20.193Z,45.10
2019-03-29T19:18:49.656Z,45.00
2019-03-29T19:21:19.235Z,45.20
2019-03-29T19:23:48.740Z,44.70
2019-03-29T19:26:18.328Z,46.30
2019-03-29T19:28:47.780Z,47.60
2019-03-29T19:31:17.325Z,47.30
2019-03-29T19:33:46.835Z,47.20
2019-03-29T19:36:18.704Z,47.50
2019-03-29T19:38:48.526Z,47.70
2019-03-29T19:41:18.180Z,47.00
2019-03-29T19:43:47.924Z,47.20
2019-03-29T19:46:17.435Z,47.30
2019-03-29T19:48:46.927Z,46.90
2019-03-29T19:51:16.456Z,47.10
2019-03-29T19:53:45.974Z,47.30
2019-03-29T19:56:15.755Z,47.20
2019-03-29T19:58:45.284Z,47.80
2019-03-29T20:01:14.791Z,47.50
2019-03-29T20:03:44.425Z,47.80
2019-03-29T20:06:14.064Z,47.70
2019-03-29T20:08:43.816Z,48.30
2019-03-29T20:11:13.524Z,48.20
2019-03-29T20:13:42.955Z,48.80
2019-03-29T20:16:12.396Z,48.70
2019-03-29T20:18:41.989Z,49.00
2019-03-29T20:21:11.500Z,49.20
2019-03-29T20:23:41.101Z,49.90
2019-03-29T20:26:10.717Z,50.60
2019-03-29T20:28:40.377Z,50.40
2019-03-29T20:31:09.952Z,50.00
2019-03-29T20:33:39.460Z,51.00
2019-03-29T20:36:08.976Z,50.70
2019-03-29T20:38:38.414Z,51.20
2019-03-29T20:41:08.393Z,51.30
2019-03-29T20:43:37.904Z,51.00
2019-03-29T20:46:10.888Z,50.40
2019-03-29T20:48:40.364Z,50.40
2019-03-29T20:51:09.799Z,50.30
2019-03-29T20:53:39.238Z,50.80
2019-03-29T20:56:08.707Z,51.30
2019-03-29T20:58:38.145Z,51.20
2019-03-29T21:01:07.588Z,51.30
2019-03-29T21:03:37.107Z,51.20
2019-03-29T21:06:06.628Z,51.40
2019-03-29T21:08:36.130Z,51.70
2019-03-29T21:11:07.057Z,52.00
2019-03-29T21:13:36.601Z,52.20
2019-03-29T21:16:06.476Z,51.50
2019-03-29T21:18:36.120Z,51.50
2019-03-29T21:21:05.735Z,51.90
2019-03-29T21:23:35.235Z,51.40
2019-03-29T21:26:04.912Z,52.20
2019-03-29T21:28:35.160Z,51.80
2019-03-29T21:31:04.868Z,52.00
2019-03-29T21:33:34.670Z,52.40
2019-03-29T21:36:04.662Z,52.20
2019-03-29T21:38:34.197Z,52.70
2019-03-29T21:41:04.352Z,52.90
2019-03-29T21:43:33.853Z,52.90
2019-03-29T21:46:03.531Z,52.80
2019-03-29T21:48:33.544Z,53.20
2019-03-29T21:51:02.990Z,53.50
2019-03-29T21:53:32.424Z,54.00
2019-03-29T21:56:02.049Z,54.50
2019-03-29T21:58:31.692Z,54.60
2019-03-29T22:01:01.268Z,54.40
2019-03-29T22:03:30.808Z,54.10
2019-03-29T22:06:00.324Z,54.10
2019-03-29T22:08:30.065Z,54.20
2019-03-29T22:10:59.828Z,54.00
2019-03-29T22:13:29.330Z,54.10
2019-03-29T22:15:59.183Z,53.90
2019-03-29T22:18:37.924Z,53.90
2019-03-29T22:21:00.140Z,54.00
2019-03-29T22:23:29.852Z,54.10
2019-03-29T22:25:59.403Z,54.30
2019-03-29T22:28:28.843Z,54.30
2019-03-29T22:30:58.353Z,54.60
2019-03-29T22:33:28.025Z,54.40
2019-03-29T22:35:57.530Z,54.50
2019-03-29T22:38:26.964Z,54.50
2019-03-29T22:40:56.792Z,54.50
2019-03-29T22:43:26.501Z,54.50
2019-03-29T22:45:56.013Z,54.70
2019-03-29T22:48:25.839Z,54.90
2019-03-29T22:50:55.624Z,55.40
2019-03-29T22:53:25.341Z,55.10
2019-03-29T22:55:55.487Z,55.80
2019-03-29T22:58:28.234Z,55.50
2019-03-29T23:00:56.964Z,55.60
2019-03-29T23:03:26.572Z,55.70
2019-03-29T23:05:56.009Z,55.60
2019-03-29T23:08:25.516Z,55.30
2019-03-29T23:10:55.051Z,55.20
2019-03-29T23:13:25.396Z,55.40
2019-03-29T23:15:54.951Z,55.70
2019-03-29T23:18:24.637Z,55.30
2019-03-29T23:20:54.154Z,55.50
2019-03-29T23:23:23.651Z,56.00
2019-03-29T23:25:53.507Z,56.50
2019-03-29T23:28:23.016Z,56.50
2019-03-29T23:30:52.531Z,56.70
2019-03-29T23:33:22.097Z,56.90
2019-03-29T23:35:51.523Z,56.60
2019-03-29T23:38:21.431Z,56.80
2019-03-29T23:40:50.961Z,57.00
2019-03-29T23:43:20.485Z,56.70
2019-03-29T23:45:49.912Z,57.60
2019-03-29T23:48:19.656Z,58.60
2019-03-29T23:50:49.255Z,59.00
2019-03-29T23:53:18.765Z,59.20
2019-03-29T23:55:48.576Z,59.30
2019-03-29T23:58:18.084Z,59.00
